sensor_id;sensor_type;location;lat;lon;timestamp;P1;durP1;ratioP1;P2;durP2;ratioP2
8086;SDS011;4086;54.412;9.980;2023-07-29T00:00:36;11.60;;;10.40;;
8086;SDS011;4086;54.412;9.980;2023-07-29T00:03:03;10.33;;;9.33;;
8086;SDS011;4086;54.412;9.980;2023-07-29T00:05:29;12.37;;;11.13;;
8086;SDS011;4086;54.412;9.980;2023-07-29T00:07:56;11.40;;;10.30;;
8086;SDS011;4086;54.412;9.980;2023-07-29T00:10:22;12.03;;;10.83;;
8086;SDS011;4086;54.412;9.980;2023-07-29T00:12:50;11.23;;;10.20;;
8086;SDS011;4086;54.412;9.980;2023-07-29T00:15:16;12.47;;;11.27;;
8086;SDS011;4086;54.412;9.980;2023-07-29T00:17:43;11.30;;;10.30;;
8086;SDS011;4086;54.412;9.980;2023-07-29T00:20:09;11.97;;;10.77;;
8086;SDS011;4086;54.412;9.980;2023-07-29T00:22:36;12.00;;;10.80;;
8086;SDS011;4086;54.412;9.980;2023-07-29T00:25:02;11.23;;;10.03;;
8086;SDS011;4086;54.412;9.980;2023-07-29T00:27:29;11.77;;;10.57;;
8086;SDS011;4086;54.412;9.980;2023-07-29T00:29:57;13.40;;;12.07;;
8086;SDS011;4086;54.412;9.980;2023-07-29T00:32:23;13.67;;;11.63;;
8086;SDS011;4086;54.412;9.980;2023-07-29T00:34:50;12.90;;;11.10;;
8086;SDS011;4086;54.412;9.980;2023-07-29T00:37:16;11.90;;;10.70;;
8086;SDS011;4086;54.412;9.980;2023-07-29T00:39:43;13.33;;;11.93;;
8086;SDS011;4086;54.412;9.980;2023-07-29T00:42:09;13.20;;;11.60;;
8086;SDS011;4086;54.412;9.980;2023-07-29T00:44:35;12.57;;;11.23;;
8086;SDS011;4086;54.412;9.980;2023-07-29T00:47:03;12.83;;;11.63;;
8086;SDS011;4086;54.412;9.980;2023-07-29T00:49:31;14.93;;;12.53;;
8086;SDS011;4086;54.412;9.980;2023-07-29T00:51:58;15.33;;;13.80;;
8086;SDS011;4086;54.412;9.980;2023-07-29T00:54:25;11.60;;;10.50;;
8086;SDS011;4086;54.412;9.980;2023-07-29T00:56:51;12.63;;;11.40;;
8086;SDS011;4086;54.412;9.980;2023-07-29T00:59:17;13.53;;;12.23;;
8086;SDS011;4086;54.412;9.980;2023-07-29T01:01:44;14.03;;;12.53;;
8086;SDS011;4086;54.412;9.980;2023-07-29T01:04:12;15.87;;;13.90;;
8086;SDS011;4086;54.412;9.980;2023-07-29T01:06:40;16.37;;;14.67;;
8086;SDS011;4086;54.412;9.980;2023-07-29T01:09:13;13.17;;;11.77;;
8086;SDS011;4086;54.412;9.980;2023-07-29T01:11:44;16.77;;;14.97;;
8086;SDS011;4086;54.412;9.980;2023-07-29T01:14:16;14.50;;;13.00;;
8086;SDS011;4086;54.412;9.980;2023-07-29T01:16:47;17.10;;;14.23;;
8086;SDS011;4086;54.412;9.980;2023-07-29T01:19:20;15.17;;;13.57;;
8086;SDS011;4086;54.412;9.980;2023-07-29T01:21:56;12.10;;;10.83;;
8086;SDS011;4086;54.412;9.980;2023-07-29T01:24:23;14.93;;;13.37;;
8086;SDS011;4086;54.412;9.980;2023-07-29T01:26:50;16.13;;;13.70;;
8086;SDS011;4086;54.412;9.980;2023-07-29T01:29:16;15.70;;;13.67;;
8086;SDS011;4086;54.412;9.980;2023-07-29T01:31:43;16.77;;;13.53;;
8086;SDS011;4086;54.412;9.980;2023-07-29T01:34:13;12.40;;;11.20;;
8086;SDS011;4086;54.412;9.980;2023-07-29T01:36:42;12.30;;;11.00;;
8086;SDS011;4086;54.412;9.980;2023-07-29T01:39:10;11.90;;;10.70;;
8086;SDS011;4086;54.412;9.980;2023-07-29T01:41:38;20.63;;;17.60;;
8086;SDS011;4086;54.412;9.980;2023-07-29T01:44:05;19.60;;;16.30;;
8086;SDS011;4086;54.412;9.980;2023-07-29T01:46:32;19.90;;;16.77;;
8086;SDS011;4086;54.412;9.980;2023-07-29T01:48:59;20.07;;;16.23;;
8086;SDS011;4086;54.412;9.980;2023-07-29T01:51:25;20.17;;;17.30;;
8086;SDS011;4086;54.412;9.980;2023-07-29T01:53:52;18.27;;;16.00;;
8086;SDS011;4086;54.412;9.980;2023-07-29T01:56:20;21.57;;;17.50;;
8086;SDS011;4086;54.412;9.980;2023-07-29T01:58:48;19.20;;;16.27;;
8086;SDS011;4086;54.412;9.980;2023-07-29T02:01:14;18.67;;;15.87;;
8086;SDS011;4086;54.412;9.980;2023-07-29T02:03:41;17.77;;;15.37;;
8086;SDS011;4086;54.412;9.980;2023-07-29T02:06:07;21.00;;;17.73;;
8086;SDS011;4086;54.412;9.980;2023-07-29T02:08:34;18.37;;;15.53;;
8086;SDS011;4086;54.412;9.980;2023-07-29T02:11:01;16.30;;;14.03;;
8086;SDS011;4086;54.412;9.980;2023-07-29T02:13:27;19.07;;;16.43;;
8086;SDS011;4086;54.412;9.980;2023-07-29T02:15:55;18.23;;;16.33;;
8086;SDS011;4086;54.412;9.980;2023-07-29T02:18:21;18.40;;;16.40;;
8086;SDS011;4086;54.412;9.980;2023-07-29T02:20:48;20.97;;;16.53;;
8086;SDS011;4086;54.412;9.980;2023-07-29T02:23:15;18.77;;;16.27;;
8086;SDS011;4086;54.412;9.980;2023-07-29T02:25:42;15.73;;;14.00;;
8086;SDS011;4086;54.412;9.980;2023-07-29T02:28:08;18.07;;;15.67;;
8086;SDS011;4086;54.412;9.980;2023-07-29T02:30:36;14.67;;;13.03;;
8086;SDS011;4086;54.412;9.980;2023-07-29T02:33:04;18.37;;;15.37;;
8086;SDS011;4086;54.412;9.980;2023-07-29T02:35:30;17.70;;;15.80;;
8086;SDS011;4086;54.412;9.980;2023-07-29T02:37:56;16.03;;;14.33;;
8086;SDS011;4086;54.412;9.980;2023-07-29T02:40:23;15.00;;;13.40;;
8086;SDS011;4086;54.412;9.980;2023-07-29T02:42:51;20.63;;;17.27;;
8086;SDS011;4086;54.412;9.980;2023-07-29T02:45:18;19.47;;;15.67;;
8086;SDS011;4086;54.412;9.980;2023-07-29T02:47:44;14.90;;;13.37;;
8086;SDS011;4086;54.412;9.980;2023-07-29T02:50:13;17.17;;;15.37;;
8086;SDS011;4086;54.412;9.980;2023-07-29T02:52:39;13.17;;;11.87;;
8086;SDS011;4086;54.412;9.980;2023-07-29T02:55:06;12.77;;;11.47;;
8086;SDS011;4086;54.412;9.980;2023-07-29T02:57:32;16.67;;;14.13;;
8086;SDS011;4086;54.412;9.980;2023-07-29T02:59:59;19.53;;;16.57;;
8086;SDS011;4086;54.412;9.980;2023-07-29T03:02:25;18.93;;;15.53;;
8086;SDS011;4086;54.412;9.980;2023-07-29T03:04:52;14.33;;;12.87;;
8086;SDS011;4086;54.412;9.980;2023-07-29T03:07:19;16.70;;;14.63;;
8086;SDS011;4086;54.412;9.980;2023-07-29T03:09:46;20.50;;;16.83;;
8086;SDS011;4086;54.412;9.980;2023-07-29T03:12:12;16.33;;;13.83;;
8086;SDS011;4086;54.412;9.980;2023-07-29T03:14:39;21.77;;;17.03;;
8086;SDS011;4086;54.412;9.980;2023-07-29T03:17:06;18.17;;;16.07;;
8086;SDS011;4086;54.412;9.980;2023-07-29T03:19:32;15.37;;;13.53;;
8086;SDS011;4086;54.412;9.980;2023-07-29T03:21:59;13.87;;;12.37;;
8086;SDS011;4086;54.412;9.980;2023-07-29T03:24:27;18.57;;;15.50;;
8086;SDS011;4086;54.412;9.980;2023-07-29T03:26:53;19.23;;;15.30;;
8086;SDS011;4086;54.412;9.980;2023-07-29T03:29:20;15.03;;;12.90;;
8086;SDS011;4086;54.412;9.980;2023-07-29T03:31:46;19.90;;;16.30;;
8086;SDS011;4086;54.412;9.980;2023-07-29T03:34:13;19.30;;;17.03;;
8086;SDS011;4086;54.412;9.980;2023-07-29T03:36:39;20.87;;;16.77;;
8086;SDS011;4086;54.412;9.980;2023-07-29T03:39:06;16.20;;;14.40;;
8086;SDS011;4086;54.412;9.980;2023-07-29T03:41:34;17.57;;;15.10;;
8086;SDS011;4086;54.412;9.980;2023-07-29T03:44:00;18.20;;;15.67;;
8086;SDS011;4086;54.412;9.980;2023-07-29T03:46:26;15.47;;;12.60;;
8086;SDS011;4086;54.412;9.980;2023-07-29T03:48:53;15.03;;;12.83;;
8086;SDS011;4086;54.412;9.980;2023-07-29T03:51:19;15.27;;;13.13;;
8086;SDS011;4086;54.412;9.980;2023-07-29T03:53:46;17.63;;;14.70;;
8086;SDS011;4086;54.412;9.980;2023-07-29T03:56:13;14.13;;;12.40;;
8086;SDS011;4086;54.412;9.980;2023-07-29T03:58:40;17.27;;;14.80;;
8086;SDS011;4086;54.412;9.980;2023-07-29T04:01:07;15.87;;;13.87;;
8086;SDS011;4086;54.412;9.980;2023-07-29T04:03:34;19.87;;;15.90;;
8086;SDS011;4086;54.412;9.980;2023-07-29T04:06:00;14.47;;;12.90;;
8086;SDS011;4086;54.412;9.980;2023-07-29T04:08:27;19.80;;;15.17;;
8086;SDS011;4086;54.412;9.980;2023-07-29T04:10:53;16.77;;;14.13;;
8086;SDS011;4086;54.412;9.980;2023-07-29T04:13:20;16.23;;;13.77;;
8086;SDS011;4086;54.412;9.980;2023-07-29T04:15:47;16.40;;;13.70;;
8086;SDS011;4086;54.412;9.980;2023-07-29T04:18:14;16.03;;;13.27;;
8086;SDS011;4086;54.412;9.980;2023-07-29T04:20:41;16.87;;;14.83;;
8086;SDS011;4086;54.412;9.980;2023-07-29T04:23:07;16.87;;;14.40;;
8086;SDS011;4086;54.412;9.980;2023-07-29T04:25:33;18.43;;;13.47;;
8086;SDS011;4086;54.412;9.980;2023-07-29T04:28:00;17.80;;;14.50;;
8086;SDS011;4086;54.412;9.980;2023-07-29T04:30:28;17.93;;;13.07;;
8086;SDS011;4086;54.412;9.980;2023-07-29T04:32:55;13.90;;;11.77;;
8086;SDS011;4086;54.412;9.980;2023-07-29T04:35:22;17.17;;;12.57;;
8086;SDS011;4086;54.412;9.980;2023-07-29T04:37:48;18.67;;;13.30;;
8086;SDS011;4086;54.412;9.980;2023-07-29T04:40:15;16.73;;;12.80;;
8086;SDS011;4086;54.412;9.980;2023-07-29T04:42:41;16.70;;;11.73;;
8086;SDS011;4086;54.412;9.980;2023-07-29T04:45:08;9.90;;;8.90;;
8086;SDS011;4086;54.412;9.980;2023-07-29T04:47:34;13.87;;;10.77;;
8086;SDS011;4086;54.412;9.980;2023-07-29T04:50:02;13.97;;;10.83;;
8086;SDS011;4086;54.412;9.980;2023-07-29T04:52:29;13.07;;;10.57;;
8086;SDS011;4086;54.412;9.980;2023-07-29T04:54:55;13.30;;;10.73;;
8086;SDS011;4086;54.412;9.980;2023-07-29T04:57:21;11.80;;;9.83;;
8086;SDS011;4086;54.412;9.980;2023-07-29T04:59:48;13.93;;;10.87;;
8086;SDS011;4086;54.412;9.980;2023-07-29T05:02:14;14.07;;;11.20;;
8086;SDS011;4086;54.412;9.980;2023-07-29T05:04:41;12.10;;;9.63;;
8086;SDS011;4086;54.412;9.980;2023-07-29T05:07:09;12.93;;;10.60;;
8086;SDS011;4086;54.412;9.980;2023-07-29T05:09:35;13.10;;;9.97;;
8086;SDS011;4086;54.412;9.980;2023-07-29T05:12:01;15.53;;;11.23;;
8086;SDS011;4086;54.412;9.980;2023-07-29T05:14:28;16.70;;;12.40;;
8086;SDS011;4086;54.412;9.980;2023-07-29T05:16:54;13.47;;;10.87;;
8086;SDS011;4086;54.412;9.980;2023-07-29T05:19:21;10.93;;;9.10;;
8086;SDS011;4086;54.412;9.980;2023-07-29T05:21:47;9.90;;;8.37;;
8086;SDS011;4086;54.412;9.980;2023-07-29T05:24:15;10.50;;;8.93;;
8086;SDS011;4086;54.412;9.980;2023-07-29T05:26:41;11.20;;;9.20;;
8086;SDS011;4086;54.412;9.980;2023-07-29T05:29:08;11.03;;;8.53;;
8086;SDS011;4086;54.412;9.980;2023-07-29T05:31:34;9.37;;;7.83;;
8086;SDS011;4086;54.412;9.980;2023-07-29T05:34:00;12.53;;;9.40;;
8086;SDS011;4086;54.412;9.980;2023-07-29T05:36:27;14.43;;;10.67;;
8086;SDS011;4086;54.412;9.980;2023-07-29T05:38:54;13.30;;;9.77;;
8086;SDS011;4086;54.412;9.980;2023-07-29T05:41:22;10.63;;;8.80;;
8086;SDS011;4086;54.412;9.980;2023-07-29T05:43:48;12.77;;;8.87;;
8086;SDS011;4086;54.412;9.980;2023-07-29T05:46:15;8.90;;;7.67;;
8086;SDS011;4086;54.412;9.980;2023-07-29T05:48:41;10.83;;;8.80;;
8086;SDS011;4086;54.412;9.980;2023-07-29T05:51:09;8.97;;;7.53;;
8086;SDS011;4086;54.412;9.980;2023-07-29T05:53:36;8.47;;;6.77;;
8086;SDS011;4086;54.412;9.980;2023-07-29T05:56:02;8.20;;;7.40;;
8086;SDS011;4086;54.412;9.980;2023-07-29T05:58:30;8.63;;;7.23;;
8086;SDS011;4086;54.412;9.980;2023-07-29T06:00:56;6.60;;;6.00;;
8086;SDS011;4086;54.412;9.980;2023-07-29T06:03:23;6.97;;;6.20;;
8086;SDS011;4086;54.412;9.980;2023-07-29T06:05:49;7.77;;;7.07;;
8086;SDS011;4086;54.412;9.980;2023-07-29T06:08:16;10.30;;;9.07;;
8086;SDS011;4086;54.412;9.980;2023-07-29T06:10:42;11.83;;;9.33;;
8086;SDS011;4086;54.412;9.980;2023-07-29T06:13:08;10.97;;;9.30;;
8086;SDS011;4086;54.412;9.980;2023-07-29T06:15:36;15.00;;;11.33;;
8086;SDS011;4086;54.412;9.980;2023-07-29T06:18:03;13.93;;;11.20;;
8086;SDS011;4086;54.412;9.980;2023-07-29T06:20:29;13.50;;;10.83;;
8086;SDS011;4086;54.412;9.980;2023-07-29T06:22:56;14.77;;;11.47;;
8086;SDS011;4086;54.412;9.980;2023-07-29T06:25:22;13.90;;;11.30;;
8086;SDS011;4086;54.412;9.980;2023-07-29T06:27:49;15.57;;;11.43;;
8086;SDS011;4086;54.412;9.980;2023-07-29T06:30:15;13.17;;;10.63;;
8086;SDS011;4086;54.412;9.980;2023-07-29T06:32:43;12.83;;;10.37;;
8086;SDS011;4086;54.412;9.980;2023-07-29T06:35:09;17.73;;;12.97;;
8086;SDS011;4086;54.412;9.980;2023-07-29T06:37:35;15.37;;;12.20;;
8086;SDS011;4086;54.412;9.980;2023-07-29T06:40:02;16.43;;;12.53;;
8086;SDS011;4086;54.412;9.980;2023-07-29T06:42:29;18.73;;;12.80;;
8086;SDS011;4086;54.412;9.980;2023-07-29T06:44:55;14.40;;;12.03;;
8086;SDS011;4086;54.412;9.980;2023-07-29T06:47:22;14.77;;;12.40;;
8086;SDS011;4086;54.412;9.980;2023-07-29T06:49:49;18.93;;;14.37;;
8086;SDS011;4086;54.412;9.980;2023-07-29T06:52:16;12.47;;;10.77;;
8086;SDS011;4086;54.412;9.980;2023-07-29T06:54:42;16.97;;;14.17;;
8086;SDS011;4086;54.412;9.980;2023-07-29T06:57:08;14.03;;;12.53;;
8086;SDS011;4086;54.412;9.980;2023-07-29T06:59:35;15.17;;;13.67;;
8086;SDS011;4086;54.412;9.980;2023-07-29T07:02:01;14.80;;;11.97;;
8086;SDS011;4086;54.412;9.980;2023-07-29T07:04:28;11.03;;;9.90;;
8086;SDS011;4086;54.412;9.980;2023-07-29T07:06:56;10.77;;;9.73;;
8086;SDS011;4086;54.412;9.980;2023-07-29T07:09:22;11.17;;;10.03;;
8086;SDS011;4086;54.412;9.980;2023-07-29T07:11:48;9.77;;;8.80;;
8086;SDS011;4086;54.412;9.980;2023-07-29T07:14:15;10.13;;;9.13;;
8086;SDS011;4086;54.412;9.980;2023-07-29T07:16:41;10.00;;;8.20;;
8086;SDS011;4086;54.412;9.980;2023-07-29T07:19:08;9.23;;;8.37;;
8086;SDS011;4086;54.412;9.980;2023-07-29T07:21:34;7.80;;;7.03;;
8086;SDS011;4086;54.412;9.980;2023-07-29T07:24:02;6.90;;;6.30;;
8086;SDS011;4086;54.412;9.980;2023-07-29T07:26:28;6.87;;;6.27;;
8086;SDS011;4086;54.412;9.980;2023-07-29T07:28:55;5.60;;;5.20;;
8086;SDS011;4086;54.412;9.980;2023-07-29T07:31:21;5.40;;;5.00;;
8086;SDS011;4086;54.412;9.980;2023-07-29T07:33:48;5.50;;;5.10;;
8086;SDS011;4086;54.412;9.980;2023-07-29T07:36:14;4.60;;;4.20;;
8086;SDS011;4086;54.412;9.980;2023-07-29T07:38:41;5.00;;;4.30;;
8086;SDS011;4086;54.412;9.980;2023-07-29T07:41:09;5.27;;;4.87;;
8086;SDS011;4086;54.412;9.980;2023-07-29T07:43:35;5.30;;;4.90;;
8086;SDS011;4086;54.412;9.980;2023-07-29T07:46:03;5.97;;;5.43;;
8086;SDS011;4086;54.412;9.980;2023-07-29T07:48:29;7.37;;;6.80;;
8086;SDS011;4086;54.412;9.980;2023-07-29T07:50:58;7.33;;;6.73;;
8086;SDS011;4086;54.412;9.980;2023-07-29T07:53:24;6.33;;;5.83;;
8086;SDS011;4086;54.412;9.980;2023-07-29T07:55:51;8.00;;;7.40;;
8086;SDS011;4086;54.412;9.980;2023-07-29T07:58:19;7.27;;;6.57;;
8086;SDS011;4086;54.412;9.980;2023-07-29T08:00:45;7.77;;;7.17;;
8086;SDS011;4086;54.412;9.980;2023-07-29T08:03:12;8.47;;;7.77;;
8086;SDS011;4086;54.412;9.980;2023-07-29T08:05:38;9.13;;;8.27;;
8086;SDS011;4086;54.412;9.980;2023-07-29T08:08:04;8.77;;;7.97;;
8086;SDS011;4086;54.412;9.980;2023-07-29T08:10:31;9.47;;;8.67;;
8086;SDS011;4086;54.412;9.980;2023-07-29T08:12:57;9.67;;;8.87;;
8086;SDS011;4086;54.412;9.980;2023-07-29T08:15:25;8.13;;;7.43;;
8086;SDS011;4086;54.412;9.980;2023-07-29T08:17:52;10.43;;;9.53;;
8086;SDS011;4086;54.412;9.980;2023-07-29T08:20:18;11.17;;;10.17;;
8086;SDS011;4086;54.412;9.980;2023-07-29T08:22:44;10.30;;;9.40;;
8086;SDS011;4086;54.412;9.980;2023-07-29T08:25:11;9.97;;;9.17;;
8086;SDS011;4086;54.412;9.980;2023-07-29T08:27:37;9.70;;;8.70;;
8086;SDS011;4086;54.412;9.980;2023-07-29T08:30:04;11.70;;;10.70;;
8086;SDS011;4086;54.412;9.980;2023-07-29T08:32:32;11.27;;;10.27;;
8086;SDS011;4086;54.412;9.980;2023-07-29T08:34:58;11.50;;;10.50;;
8086;SDS011;4086;54.412;9.980;2023-07-29T08:37:25;10.10;;;9.20;;
8086;SDS011;4086;54.412;9.980;2023-07-29T08:39:52;10.63;;;9.63;;
8086;SDS011;4086;54.412;9.980;2023-07-29T08:42:19;11.77;;;10.67;;
8086;SDS011;4086;54.412;9.980;2023-07-29T08:44:45;11.37;;;10.23;;
8086;SDS011;4086;54.412;9.980;2023-07-29T08:47:15;9.27;;;8.47;;
8086;SDS011;4086;54.412;9.980;2023-07-29T08:49:43;11.67;;;9.67;;
8086;SDS011;4086;54.412;9.980;2023-07-29T08:52:10;8.17;;;7.47;;
8086;SDS011;4086;54.412;9.980;2023-07-29T08:54:37;9.70;;;8.80;;
8086;SDS011;4086;54.412;9.980;2023-07-29T08:57:03;10.57;;;9.67;;
8086;SDS011;4086;54.412;9.980;2023-07-29T08:59:30;9.23;;;8.40;;
8086;SDS011;4086;54.412;9.980;2023-07-29T09:01:57;9.80;;;8.90;;
8086;SDS011;4086;54.412;9.980;2023-07-29T09:04:24;9.77;;;8.93;;
8086;SDS011;4086;54.412;9.980;2023-07-29T09:06:52;9.00;;;8.20;;
8086;SDS011;4086;54.412;9.980;2023-07-29T09:09:20;9.03;;;8.20;;
8086;SDS011;4086;54.412;9.980;2023-07-29T09:11:47;10.20;;;9.30;;
8086;SDS011;4086;54.412;9.980;2023-07-29T09:14:13;9.97;;;9.07;;
8086;SDS011;4086;54.412;9.980;2023-07-29T09:16:40;10.17;;;9.17;;
8086;SDS011;4086;54.412;9.980;2023-07-29T09:19:07;9.27;;;8.50;;
8086;SDS011;4086;54.412;9.980;2023-07-29T09:21:33;10.37;;;9.30;;
8086;SDS011;4086;54.412;9.980;2023-07-29T09:24:03;9.20;;;8.40;;
8086;SDS011;4086;54.412;9.980;2023-07-29T09:26:30;9.70;;;8.97;;
8086;SDS011;4086;54.412;9.980;2023-07-29T09:28:58;8.77;;;8.07;;
8086;SDS011;4086;54.412;9.980;2023-07-29T09:31:26;9.00;;;8.10;;
8086;SDS011;4086;54.412;9.980;2023-07-29T09:33:55;9.43;;;8.60;;
8086;SDS011;4086;54.412;9.980;2023-07-29T09:36:23;9.13;;;8.37;;
8086;SDS011;4086;54.412;9.980;2023-07-29T09:38:51;8.20;;;7.50;;
8086;SDS011;4086;54.412;9.980;2023-07-29T09:41:20;7.20;;;6.60;;
8086;SDS011;4086;54.412;9.980;2023-07-29T09:43:48;7.43;;;6.73;;
8086;SDS011;4086;54.412;9.980;2023-07-29T09:46:22;6.60;;;6.00;;
8086;SDS011;4086;54.412;9.980;2023-07-29T09:48:48;5.97;;;5.47;;
8086;SDS011;4086;54.412;9.980;2023-07-29T09:51:15;5.20;;;4.80;;
8086;SDS011;4086;54.412;9.980;2023-07-29T09:53:42;5.47;;;4.43;;
8086;SDS011;4086;54.412;9.980;2023-07-29T09:56:09;4.67;;;4.37;;
8086;SDS011;4086;54.412;9.980;2023-07-29T09:58:37;4.90;;;4.50;;
8086;SDS011;4086;54.412;9.980;2023-07-29T10:01:04;4.17;;;3.87;;
8086;SDS011;4086;54.412;9.980;2023-07-29T10:03:30;4.27;;;3.87;;
8086;SDS011;4086;54.412;9.980;2023-07-29T10:05:59;4.57;;;4.17;;
8086;SDS011;4086;54.412;9.980;2023-07-29T10:08:25;3.73;;;3.43;;
8086;SDS011;4086;54.412;9.980;2023-07-29T10:10:53;3.60;;;3.30;;
8086;SDS011;4086;54.412;9.980;2023-07-29T10:13:20;3.00;;;2.80;;
8086;SDS011;4086;54.412;9.980;2023-07-29T10:15:48;3.73;;;2.80;;
8086;SDS011;4086;54.412;9.980;2023-07-29T10:18:16;3.37;;;3.07;;
8086;SDS011;4086;54.412;9.980;2023-07-29T10:20:42;3.67;;;3.43;;
8086;SDS011;4086;54.412;9.980;2023-07-29T10:23:09;3.13;;;2.93;;
8086;SDS011;4086;54.412;9.980;2023-07-29T10:25:37;2.87;;;2.67;;
8086;SDS011;4086;54.412;9.980;2023-07-29T10:28:07;4.10;;;3.80;;
8086;SDS011;4086;54.412;9.980;2023-07-29T10:30:34;4.30;;;3.90;;
8086;SDS011;4086;54.412;9.980;2023-07-29T10:33:03;3.77;;;3.47;;
8086;SDS011;4086;54.412;9.980;2023-07-29T10:35:31;4.03;;;3.73;;
8086;SDS011;4086;54.412;9.980;2023-07-29T10:37:59;4.40;;;3.93;;
8086;SDS011;4086;54.412;9.980;2023-07-29T10:40:25;3.87;;;3.57;;
8086;SDS011;4086;54.412;9.980;2023-07-29T10:42:59;4.00;;;3.70;;
8086;SDS011;4086;54.412;9.980;2023-07-29T10:45:26;3.60;;;3.37;;
8086;SDS011;4086;54.412;9.980;2023-07-29T10:48:06;3.47;;;3.17;;
8086;SDS011;4086;54.412;9.980;2023-07-29T10:50:33;5.23;;;2.97;;
8086;SDS011;4086;54.412;9.980;2023-07-29T10:53:00;2.57;;;2.40;;
8086;SDS011;4086;54.412;9.980;2023-07-29T10:55:27;2.95;;;2.75;;
8086;SDS011;4086;54.412;9.980;2023-07-29T10:58:04;2.70;;;2.60;;
8086;SDS011;4086;54.412;9.980;2023-07-29T11:00:32;2.30;;;2.20;;
8086;SDS011;4086;54.412;9.980;2023-07-29T11:02:59;2.70;;;2.50;;
8086;SDS011;4086;54.412;9.980;2023-07-29T11:05:28;3.83;;;2.53;;
8086;SDS011;4086;54.412;9.980;2023-07-29T11:08:15;2.60;;;2.40;;
8086;SDS011;4086;54.412;9.980;2023-07-29T11:10:42;2.80;;;2.60;;
8086;SDS011;4086;54.412;9.980;2023-07-29T11:13:10;6.10;;;2.93;;
8086;SDS011;4086;54.412;9.980;2023-07-29T11:15:37;3.10;;;2.60;;
8086;SDS011;4086;54.412;9.980;2023-07-29T11:18:05;2.87;;;2.67;;
8086;SDS011;4086;54.412;9.980;2023-07-29T11:20:35;3.33;;;3.00;;
8086;SDS011;4086;54.412;9.980;2023-07-29T11:23:02;2.93;;;2.70;;
8086;SDS011;4086;54.412;9.980;2023-07-29T11:25:30;2.60;;;2.40;;
8086;SDS011;4086;54.412;9.980;2023-07-29T11:27:58;2.20;;;2.10;;
8086;SDS011;4086;54.412;9.980;2023-07-29T11:30:25;2.53;;;2.33;;
8086;SDS011;4086;54.412;9.980;2023-07-29T11:32:52;2.30;;;2.20;;
8086;SDS011;4086;54.412;9.980;2023-07-29T11:35:20;2.00;;;1.90;;
8086;SDS011;4086;54.412;9.980;2023-07-29T11:37:48;2.90;;;2.70;;
8086;SDS011;4086;54.412;9.980;2023-07-29T11:40:15;2.40;;;2.20;;
8086;SDS011;4086;54.412;9.980;2023-07-29T11:42:42;2.40;;;2.25;;
8086;SDS011;4086;54.412;9.980;2023-07-29T11:45:09;2.22;;;2.10;;
8086;SDS011;4086;54.412;9.980;2023-07-29T11:47:36;2.70;;;2.38;;
8086;SDS011;4086;54.412;9.980;2023-07-29T11:50:03;2.78;;;2.40;;
8086;SDS011;4086;54.412;9.980;2023-07-29T11:52:31;2.40;;;2.30;;
8086;SDS011;4086;54.412;9.980;2023-07-29T11:54:59;2.50;;;2.30;;
8086;SDS011;4086;54.412;9.980;2023-07-29T11:57:26;2.20;;;2.10;;
8086;SDS011;4086;54.412;9.980;2023-07-29T11:59:52;2.43;;;2.30;;
8086;SDS011;4086;54.412;9.980;2023-07-29T12:02:19;1.85;;;1.75;;
8086;SDS011;4086;54.412;9.980;2023-07-29T12:04:47;2.45;;;2.35;;
8086;SDS011;4086;54.412;9.980;2023-07-29T12:07:14;2.00;;;1.90;;
8086;SDS011;4086;54.412;9.980;2023-07-29T12:09:42;2.30;;;2.10;;
8086;SDS011;4086;54.412;9.980;2023-07-29T12:12:11;2.20;;;2.10;;
8086;SDS011;4086;54.412;9.980;2023-07-29T12:14:37;2.47;;;2.28;;
8086;SDS011;4086;54.412;9.980;2023-07-29T12:17:04;3.15;;;2.20;;
8086;SDS011;4086;54.412;9.980;2023-07-29T12:19:32;2.58;;;2.28;;
8086;SDS011;4086;54.412;9.980;2023-07-29T12:21:59;1.98;;;1.88;;
8086;SDS011;4086;54.412;9.980;2023-07-29T12:24:25;3.45;;;2.45;;
8086;SDS011;4086;54.412;9.980;2023-07-29T12:26:52;2.13;;;2.03;;
8086;SDS011;4086;54.412;9.980;2023-07-29T12:29:20;2.15;;;2.05;;
8086;SDS011;4086;54.412;9.980;2023-07-29T12:31:46;2.38;;;2.22;;
8086;SDS011;4086;54.412;9.980;2023-07-29T12:34:17;1.88;;;1.77;;
8086;SDS011;4086;54.412;9.980;2023-07-29T12:36:45;2.20;;;2.00;;
8086;SDS011;4086;54.412;9.980;2023-07-29T12:39:15;2.83;;;2.20;;
8086;SDS011;4086;54.412;9.980;2023-07-29T12:41:43;2.47;;;2.20;;
8086;SDS011;4086;54.412;9.980;2023-07-29T12:44:09;2.50;;;2.30;;
8086;SDS011;4086;54.412;9.980;2023-07-29T12:46:37;4.05;;;2.35;;
8086;SDS011;4086;54.412;9.980;2023-07-29T12:49:04;2.25;;;2.15;;
8086;SDS011;4086;54.412;9.980;2023-07-29T12:51:30;3.10;;;2.70;;
8086;SDS011;4086;54.412;9.980;2023-07-29T12:53:57;2.58;;;2.38;;
8086;SDS011;4086;54.412;9.980;2023-07-29T12:56:23;3.05;;;2.63;;
8086;SDS011;4086;54.412;9.980;2023-07-29T12:58:50;2.92;;;2.65;;
8086;SDS011;4086;54.412;9.980;2023-07-29T13:01:16;4.05;;;2.97;;
8086;SDS011;4086;54.412;9.980;2023-07-29T13:03:44;4.18;;;3.47;;
8086;SDS011;4086;54.412;9.980;2023-07-29T13:06:11;3.20;;;3.00;;
8086;SDS011;4086;54.412;9.980;2023-07-29T13:08:37;3.50;;;3.20;;
8086;SDS011;4086;54.412;9.980;2023-07-29T13:11:04;5.15;;;2.70;;
8086;SDS011;4086;54.412;9.980;2023-07-29T13:13:31;3.05;;;2.60;;
8086;SDS011;4086;54.412;9.980;2023-07-29T13:15:58;2.65;;;2.45;;
8086;SDS011;4086;54.412;9.980;2023-07-29T13:18:24;2.75;;;2.50;;
8086;SDS011;4086;54.412;9.980;2023-07-29T13:20:52;3.35;;;2.50;;
8086;SDS011;4086;54.412;9.980;2023-07-29T13:23:19;2.35;;;2.15;;
8086;SDS011;4086;54.412;9.980;2023-07-29T13:25:45;3.03;;;2.53;;
8086;SDS011;4086;54.412;9.980;2023-07-29T13:28:12;2.47;;;2.28;;
8086;SDS011;4086;54.412;9.980;2023-07-29T13:30:39;3.33;;;2.38;;
8086;SDS011;4086;54.412;9.980;2023-07-29T13:33:05;3.95;;;2.50;;
8086;SDS011;4086;54.412;9.980;2023-07-29T13:35:32;2.40;;;2.20;;
8086;SDS011;4086;54.412;9.980;2023-07-29T13:38:00;2.90;;;2.15;;
8086;SDS011;4086;54.412;9.980;2023-07-29T13:40:27;4.60;;;2.00;;
8086;SDS011;4086;54.412;9.980;2023-07-29T13:42:53;2.60;;;2.40;;
8086;SDS011;4086;54.412;9.980;2023-07-29T13:45:20;2.75;;;2.22;;
8086;SDS011;4086;54.412;9.980;2023-07-29T13:47:46;2.97;;;1.98;;
8086;SDS011;4086;54.412;9.980;2023-07-29T13:50:13;2.30;;;2.00;;
8086;SDS011;4086;54.412;9.980;2023-07-29T13:52:40;4.50;;;2.42;;
8086;SDS011;4086;54.412;9.980;2023-07-29T13:55:08;2.25;;;2.08;;
8086;SDS011;4086;54.412;9.980;2023-07-29T13:57:35;4.20;;;2.17;;
8086;SDS011;4086;54.412;9.980;2023-07-29T14:00:01;2.97;;;2.40;;
8086;SDS011;4086;54.412;9.980;2023-07-29T14:02:28;2.47;;;2.28;;
8086;SDS011;4086;54.412;9.980;2023-07-29T14:04:56;3.33;;;2.33;;
8086;SDS011;4086;54.412;9.980;2023-07-29T14:07:22;2.53;;;2.30;;
8086;SDS011;4086;54.412;9.980;2023-07-29T14:09:49;2.92;;;2.30;;
8086;SDS011;4086;54.412;9.980;2023-07-29T14:12:16;3.80;;;2.55;;
8086;SDS011;4086;54.412;9.980;2023-07-29T14:14:43;4.45;;;3.55;;
8086;SDS011;4086;54.412;9.980;2023-07-29T14:17:09;2.65;;;2.38;;
8086;SDS011;4086;54.412;9.980;2023-07-29T14:19:36;3.30;;;2.80;;
8086;SDS011;4086;54.412;9.980;2023-07-29T14:22:02;2.97;;;2.45;;
8086;SDS011;4086;54.412;9.980;2023-07-29T14:24:29;3.22;;;2.70;;
8086;SDS011;4086;54.412;9.980;2023-07-29T14:26:55;5.50;;;3.50;;
8086;SDS011;4086;54.412;9.980;2023-07-29T14:29:23;4.28;;;3.25;;
8086;SDS011;4086;54.412;9.980;2023-07-29T14:31:50;4.53;;;2.60;;
8086;SDS011;4086;54.412;9.980;2023-07-29T14:34:16;4.95;;;3.25;;
8086;SDS011;4086;54.412;9.980;2023-07-29T14:36:42;3.17;;;2.67;;
8086;SDS011;4086;54.412;9.980;2023-07-29T14:39:09;2.95;;;2.20;;
8086;SDS011;4086;54.412;9.980;2023-07-29T14:41:36;3.35;;;2.25;;
8086;SDS011;4086;54.412;9.980;2023-07-29T14:44:03;6.38;;;4.47;;
8086;SDS011;4086;54.412;9.980;2023-07-29T14:46:30;2.95;;;2.35;;
8086;SDS011;4086;54.412;9.980;2023-07-29T14:48:57;2.80;;;2.60;;
8086;SDS011;4086;54.412;9.980;2023-07-29T14:51:24;3.22;;;2.40;;
8086;SDS011;4086;54.412;9.980;2023-07-29T14:53:50;5.65;;;4.68;;
8086;SDS011;4086;54.412;9.980;2023-07-29T14:56:17;2.58;;;2.30;;
8086;SDS011;4086;54.412;9.980;2023-07-29T14:58:43;3.30;;;2.20;;
8086;SDS011;4086;54.412;9.980;2023-07-29T15:01:10;3.47;;;2.08;;